createdAt,value
2023-03-03T00:01:21.210Z,74.27
2023-03-03T00:03:54.167Z,68.63
2023-03-03T00:09:41.542Z,69.50
2023-03-03T00:12:31.844Z,66.65
2023-03-03T00:15:19.860Z,68.23
2023-03-03T00:17:54.295Z,64.93
2023-03-03T00:20:37.640Z,68.72
2023-03-03T00:23:39.552Z,71.63
2023-03-03T00:26:26.496Z,65.03
2023-03-03T00:28:59.227Z,64.93
2023-03-03T00:31:36.329Z,71.10
2023-03-03T00:34:18.272Z,70.93
2023-03-03T00:36:56.446Z,71.55
2023-03-03T00:39:38.514Z,63.53
2023-03-03T00:42:20.320Z,79.03
2023-03-03T00:45:00.644Z,66.18
2023-03-03T00:47:42.712Z,67.03
2023-03-03T00:50:35.483Z,66.00
2023-03-03T00:53:14.568Z,62.15
2023-03-03T00:55:49.601Z,72.23
2023-03-03T00:58:24.712Z,69.05
2023-03-03T01:00:59.229Z,71.03
2023-03-03T01:03:41.949Z,73.55
2023-03-03T01:06:15.716Z,66.88
2023-03-03T01:08:48.320Z,67.60
2023-03-03T01:11:25.462Z,73.97
2023-03-03T01:13:57.541Z,70.78
2023-03-03T01:16:33.151Z,78.50
2023-03-03T01:19:05.069Z,72.13
2023-03-03T01:21:37.842Z,75.37
2023-03-03T01:24:09.870Z,74.47
2023-03-03T01:26:44.747Z,67.07
2023-03-03T01:29:16.626Z,68.30
2023-03-03T01:31:49.344Z,73.85
2023-03-03T01:34:22.531Z,72.10
2023-03-03T01:36:54.417Z,66.55
2023-03-03T01:39:27.218Z,70.45
2023-03-03T01:41:59.326Z,71.00
2023-03-03T01:44:32.207Z,69.13
2023-03-03T01:47:16.676Z,67.87
2023-03-03T01:49:56.780Z,71.18
2023-03-03T01:52:43.897Z,69.63
2023-03-03T01:58:36.451Z,62.45
2023-03-03T02:01:18.139Z,65.30
2023-03-03T02:04:13.265Z,66.97
2023-03-03T02:06:52.116Z,67.32
2023-03-03T02:09:42.641Z,73.13
2023-03-03T02:12:19.538Z,69.22
2023-03-03T02:14:52.296Z,75.83
2023-03-03T02:17:24.816Z,67.43
2023-03-03T02:20:12.217Z,69.85
2023-03-03T02:23:11.241Z,68.97
2023-03-03T02:26:16.831Z,64.72
2023-03-03T02:28:52.019Z,67.47
2023-03-03T02:34:21.401Z,64.45
2023-03-03T02:36:53.771Z,76.38
2023-03-03T02:39:30.913Z,71.15
2023-03-03T02:42:17.541Z,70.10
2023-03-03T02:44:55.369Z,71.60
2023-03-03T02:47:27.247Z,69.03
2023-03-03T02:50:00.049Z,73.15
2023-03-03T02:52:32.786Z,76.68
2023-03-03T02:55:06.359Z,63.03
2023-03-03T02:57:39.106Z,68.43
2023-03-03T03:00:12.115Z,67.93
2023-03-03T03:02:45.106Z,69.18
2023-03-03T03:05:18.210Z,71.18
2023-03-03T03:07:50.920Z,66.07
2023-03-03T03:10:23.882Z,72.45
2023-03-03T03:12:58.853Z,67.93
2023-03-03T03:15:31.296Z,73.38
2023-03-03T03:18:05.289Z,71.88
2023-03-03T03:20:40.041Z,64.30
2023-03-03T03:23:35.645Z,72.53
2023-03-03T03:26:08.702Z,71.40
2023-03-03T03:28:41.342Z,71.28
2023-03-03T03:31:18.944Z,65.75
2023-03-03T03:33:52.380Z,66.87
2023-03-03T03:36:27.043Z,66.25
2023-03-03T03:39:03.315Z,78.88
2023-03-03T03:41:36.065Z,66.72
2023-03-03T03:44:08.880Z,69.13
2023-03-03T03:46:41.498Z,67.53
2023-03-03T03:49:13.518Z,66.00
2023-03-03T03:51:47.329Z,73.22
2023-03-03T03:54:23.645Z,66.65
2023-03-03T03:56:57.274Z,74.32
2023-03-03T03:59:30.795Z,70.80
2023-03-03T04:02:03.853Z,74.25
2023-03-03T04:04:36.996Z,73.10
2023-03-03T04:10:05.229Z,69.72
2023-03-03T04:12:40.935Z,65.23
2023-03-03T04:15:17.311Z,69.60
2023-03-03T04:17:50.827Z,68.95
2023-03-03T04:20:23.431Z,67.07
2023-03-03T04:22:57.177Z,75.72
2023-03-03T04:25:30.970Z,62.50
2023-03-03T04:28:05.628Z,71.85
2023-03-03T04:30:40.957Z,68.97
2023-03-03T04:33:14.057Z,75.72
2023-03-03T04:35:47.237Z,64.55
2023-03-03T04:38:19.378Z,72.20
2023-03-03T04:40:53.884Z,75.82
2023-03-03T04:43:26.100Z,74.00
2023-03-03T04:45:59.769Z,72.82
2023-03-03T04:48:32.155Z,65.80
2023-03-03T04:51:07.971Z,66.53
2023-03-03T04:53:41.568Z,64.25
2023-03-03T04:56:16.188Z,68.90
2023-03-03T04:58:48.548Z,64.57
2023-03-03T05:01:22.583Z,68.72
2023-03-03T05:03:55.485Z,64.23
2023-03-03T05:06:49.656Z,59.83
2023-03-03T05:09:21.928Z,66.50
2023-03-03T05:14:44.842Z,59.00
2023-03-03T05:17:17.168Z,62.70
2023-03-03T05:19:49.514Z,65.43
2023-03-03T05:22:24.967Z,61.25
2023-03-03T05:24:57.770Z,68.03
2023-03-03T05:27:30.917Z,78.25
2023-03-03T05:30:03.058Z,68.00
2023-03-03T05:32:36.727Z,62.08
2023-03-03T05:35:09.032Z,66.45
2023-03-03T05:37:47.377Z,69.75
2023-03-03T05:40:19.786Z,65.25
2023-03-03T05:42:52.634Z,59.80
2023-03-03T05:45:24.823Z,70.22
2023-03-03T05:47:57.618Z,63.70
2023-03-03T05:50:30.142Z,61.20
2023-03-03T05:53:03.202Z,63.35
2023-03-03T05:55:35.127Z,65.47
2023-03-03T05:58:07.561Z,64.18
2023-03-03T06:00:40.154Z,59.78
2023-03-03T06:03:12.179Z,66.22
2023-03-03T06:05:45.042Z,65.95
2023-03-03T06:08:17.550Z,66.37
2023-03-03T06:10:49.480Z,61.90
2023-03-03T06:13:22.414Z,63.88
2023-03-03T06:15:56.326Z,64.40
2023-03-03T06:18:28.407Z,64.70
2023-03-03T06:21:00.299Z,70.27
2023-03-03T06:23:33.656Z,65.90
2023-03-03T06:26:06.105Z,65.60
2023-03-03T06:28:37.990Z,63.70
2023-03-03T06:31:10.749Z,59.83
2023-03-03T06:33:43.377Z,63.17
2023-03-03T06:36:16.607Z,61.40
2023-03-03T06:38:49.505Z,62.75
2023-03-03T06:41:22.042Z,64.03
2023-03-03T06:44:16.596Z,61.85
2023-03-03T06:46:48.546Z,63.47
2023-03-03T06:49:21.019Z,62.80
2023-03-03T06:51:53.649Z,59.70
2023-03-03T06:54:31.032Z,63.28
2023-03-03T06:57:18.920Z,59.60
2023-03-03T06:59:55.048Z,64.73
2023-03-03T07:02:28.357Z,59.15
2023-03-03T07:05:02.250Z,67.68
2023-03-03T07:07:34.123Z,62.40
2023-03-03T07:10:20.080Z,65.82
2023-03-03T07:12:52.684Z,63.60
2023-03-03T07:15:35.254Z,60.90
2023-03-03T07:18:41.429Z,62.15
2023-03-03T07:21:26.108Z,66.45
2023-03-03T07:24:01.053Z,63.80
2023-03-03T07:26:35.264Z,65.13
2023-03-03T07:29:27.768Z,56.42
2023-03-03T07:32:03.056Z,58.85
2023-03-03T07:34:46.964Z,63.88
2023-03-03T07:37:39.945Z,65.82
2023-03-03T07:40:38.484Z,61.77
2023-03-03T07:43:30.952Z,66.90
2023-03-03T07:46:30.434Z,60.15
2023-03-03T07:49:30.098Z,61.47
2023-03-03T07:52:19.891Z,63.08
2023-03-03T07:54:53.747Z,57.93
2023-03-03T07:57:40.474Z,59.58
2023-03-03T08:00:16.440Z,60.92
2023-03-03T08:02:59.768Z,59.22
2023-03-03T08:05:40.360Z,63.92
2023-03-03T08:08:34.943Z,63.20
2023-03-03T08:11:10.150Z,64.65
2023-03-03T08:13:43.860Z,60.35
2023-03-03T08:16:16.148Z,66.18
2023-03-03T08:18:53.979Z,71.20
2023-03-03T08:21:26.817Z,61.20
2023-03-03T08:23:59.060Z,61.00
2023-03-03T08:26:31.386Z,63.15
2023-03-03T08:29:03.634Z,70.13
2023-03-03T08:31:42.887Z,71.63
2023-03-03T08:34:15.174Z,65.53
2023-03-03T08:36:47.436Z,71.07
2023-03-03T08:39:20.039Z,63.47
2023-03-03T08:41:51.939Z,59.22
2023-03-03T08:44:24.584Z,63.97
2023-03-03T08:46:56.471Z,67.43
2023-03-03T08:49:28.692Z,72.45
2023-03-03T08:52:00.814Z,73.15
2023-03-03T08:54:33.965Z,64.80
2023-03-03T08:57:06.277Z,67.97
2023-03-03T08:59:39.396Z,69.00
2023-03-03T09:02:14.372Z,69.72
2023-03-03T09:04:46.371Z,63.10
2023-03-03T09:07:18.621Z,66.05
2023-03-03T09:09:50.914Z,66.55
2023-03-03T09:12:37.268Z,67.23
2023-03-03T09:15:25.559Z,68.18
2023-03-03T09:18:22.629Z,65.30
2023-03-03T09:20:57.919Z,71.28
2023-03-03T09:23:36.784Z,66.28
2023-03-03T09:26:15.512Z,70.83
2023-03-03T09:28:47.822Z,65.80
2023-03-03T09:31:40.633Z,71.00
2023-03-03T09:34:41.671Z,65.70
2023-03-03T09:37:38.095Z,70.50
2023-03-03T09:41:03.584Z,69.63
2023-03-03T09:44:02.466Z,60.33
2023-03-03T09:47:14.476Z,62.55
2023-03-03T09:50:19.758Z,64.15
2023-03-03T09:53:19.486Z,61.45
2023-03-03T09:55:59.464Z,67.40
2023-03-03T09:58:46.170Z,64.75
2023-03-03T10:01:24.850Z,60.80
2023-03-03T10:04:43.042Z,64.75
2023-03-03T10:07:47.142Z,62.28
2023-03-03T10:10:21.623Z,67.67
2023-03-03T10:13:20.671Z,61.55
2023-03-03T10:16:12.635Z,60.22
2023-03-03T10:19:01.215Z,71.93
2023-03-03T10:21:47.500Z,67.95
2023-03-03T10:25:05.266Z,70.33
2023-03-03T10:27:58.626Z,70.68
2023-03-03T10:31:05.589Z,66.78
2023-03-03T10:34:08.520Z,67.03
2023-03-03T10:36:56.056Z,78.57
2023-03-03T10:40:10.831Z,68.83
2023-03-03T10:43:10.433Z,66.22
2023-03-03T10:46:01.861Z,67.18
2023-03-03T10:49:22.502Z,68.30
2023-03-03T10:52:22.770Z,67.93
2023-03-03T10:55:16.472Z,70.82
2023-03-03T10:58:19.797Z,66.30
2023-03-03T11:01:27.659Z,75.35
2023-03-03T11:04:16.355Z,73.25
2023-03-03T11:06:59.904Z,63.50
2023-03-03T11:10:06.132Z,69.40
2023-03-03T11:13:13.860Z,68.88
2023-03-03T11:16:22.739Z,56.53
2023-03-03T11:19:28.326Z,59.50
2023-03-03T11:22:39.247Z,66.18
2023-03-03T11:25:26.348Z,65.28
2023-03-03T11:28:31.321Z,68.45
2023-03-03T11:31:31.952Z,67.22
2023-03-03T11:34:32.713Z,63.75
2023-03-03T11:37:10.551Z,73.80
2023-03-03T11:39:45.451Z,64.80
2023-03-03T11:42:52.949Z,62.05
2023-03-03T11:45:41.239Z,65.72
2023-03-03T11:48:36.327Z,64.28
2023-03-03T11:51:24.895Z,63.80
2023-03-03T11:55:06.889Z,68.60
2023-03-03T11:58:02.289Z,54.83
2023-03-03T12:00:42.118Z,60.00
2023-03-03T12:03:50.702Z,62.97
2023-03-03T12:06:50.733Z,58.90
2023-03-03T12:09:28.673Z,65.38
2023-03-03T12:12:16.194Z,61.50
2023-03-03T12:15:29.106Z,69.82
2023-03-03T12:18:50.980Z,70.45
2023-03-03T12:21:51.243Z,62.08
2023-03-03T12:25:05.514Z,64.50
2023-03-03T12:28:23.644Z,59.88
2023-03-03T12:31:50.319Z,64.57
2023-03-03T12:34:52.970Z,60.70
2023-03-03T12:37:51.495Z,63.28
2023-03-03T12:40:36.867Z,66.32
2023-03-03T12:44:07.595Z,68.65
2023-03-03T12:47:25.463Z,65.68
2023-03-03T12:50:48.552Z,62.88
2023-03-03T12:54:06.859Z,73.45
2023-03-03T12:57:25.114Z,71.60
2023-03-03T13:00:29.476Z,60.97
2023-03-03T13:03:32.124Z,61.80
2023-03-03T13:06:57.215Z,62.17
2023-03-03T13:09:44.084Z,64.97
2023-03-03T13:12:43.668Z,56.58
2023-03-03T13:15:54.852Z,64.72
2023-03-03T13:18:54.259Z,63.00
2023-03-03T13:22:00.334Z,63.17
2023-03-03T13:25:01.110Z,64.82
2023-03-03T13:27:42.100Z,66.25
2023-03-03T13:30:30.739Z,63.70
2023-03-03T13:33:28.500Z,62.50
2023-03-03T13:36:11.941Z,66.78
2023-03-03T13:38:57.116Z,64.75
2023-03-03T13:41:44.296Z,67.63
2023-03-03T13:44:44.183Z,68.22
2023-03-03T13:48:00.698Z,63.75
2023-03-03T13:51:25.151Z,60.40
2023-03-03T13:54:20.488Z,58.33
2023-03-03T13:57:26.167Z,70.53
2023-03-03T14:00:17.759Z,57.85
2023-03-03T14:03:41.128Z,65.20
2023-03-03T14:06:27.356Z,63.03
2023-03-03T14:09:06.510Z,68.60
2023-03-03T14:12:12.482Z,68.70
2023-03-03T14:15:20.830Z,68.40
2023-03-03T14:18:23.021Z,66.25
2023-03-03T14:21:09.222Z,63.45
2023-03-03T14:24:18.169Z,64.07
2023-03-03T14:26:57.587Z,67.32
2023-03-03T14:29:31.385Z,68.70
2023-03-03T14:32:39.486Z,70.72
2023-03-03T14:35:23.018Z,71.70
2023-03-03T14:38:13.130Z,68.82
2023-03-03T14:40:48.078Z,68.88
2023-03-03T14:43:42.876Z,67.40
2023-03-03T14:46:34.672Z,66.35
2023-03-03T14:49:37.653Z,69.07
2023-03-03T14:52:16.568Z,70.15
2023-03-03T14:54:52.574Z,68.28
2023-03-03T14:57:47.441Z,68.65
2023-03-03T15:00:19.851Z,70.93
2023-03-03T15:02:53.072Z,72.47
2023-03-03T15:05:36.827Z,70.13
2023-03-03T15:08:14.943Z,71.20
2023-03-03T15:10:47.016Z,71.07
2023-03-03T15:13:20.392Z,69.43
2023-03-03T15:16:05.721Z,69.97
2023-03-03T15:19:31.476Z,70.05
2023-03-03T15:22:21.732Z,63.88
2023-03-03T15:25:34.791Z,71.35
2023-03-03T15:32:25.212Z,61.97
2023-03-03T15:35:31.381Z,65.13
2023-03-03T15:38:30.704Z,71.38
2023-03-03T15:41:20.976Z,62.45
2023-03-03T15:44:19.801Z,67.90
2023-03-03T15:47:23.235Z,69.00
2023-03-03T15:50:29.406Z,72.88
2023-03-03T15:53:34.582Z,67.80
2023-03-03T15:56:35.994Z,67.80
2023-03-03T15:59:23.092Z,72.68
2023-03-03T16:02:15.717Z,67.00
2023-03-03T16:05:16.273Z,72.03
2023-03-03T16:08:21.864Z,66.80
2023-03-03T16:11:50.063Z,65.80
2023-03-03T16:15:27.085Z,70.18
2023-03-03T16:18:05.871Z,63.78
2023-03-03T16:21:06.542Z,67.63
2023-03-03T16:24:03.122Z,63.72
2023-03-03T16:27:37.565Z,64.13
2023-03-03T16:30:26.951Z,64.65
2023-03-03T16:33:32.083Z,71.50
2023-03-03T16:36:20.113Z,67.78
2023-03-03T16:39:24.889Z,68.20
2023-03-03T16:42:32.680Z,64.32
2023-03-03T16:45:37.763Z,64.07
2023-03-03T16:48:35.602Z,67.75
2023-03-03T16:51:32.129Z,62.70
2023-03-03T16:54:40.325Z,66.90
2023-03-03T16:57:56.276Z,65.82
2023-03-03T17:00:34.014Z,68.90
2023-03-03T17:03:31.479Z,67.20
2023-03-03T17:10:29.794Z,63.80
2023-03-03T17:13:41.638Z,68.22
2023-03-03T17:17:00.207Z,63.88
2023-03-03T17:19:44.380Z,70.45
2023-03-03T17:23:06.667Z,68.20
2023-03-03T17:25:50.299Z,70.32
2023-03-03T17:29:05.700Z,61.40
2023-03-03T17:32:12.131Z,69.25
2023-03-03T17:35:15.069Z,67.85
2023-03-03T17:38:06.951Z,71.75
2023-03-03T17:41:09.769Z,68.30
2023-03-03T17:44:13.472Z,68.45
2023-03-03T17:46:55.319Z,69.20
2023-03-03T17:49:43.735Z,64.82
2023-03-03T17:52:51.237Z,68.22
2023-03-03T17:56:26.375Z,69.78
2023-03-03T17:59:26.127Z,71.32
2023-03-03T18:02:44.845Z,72.65
2023-03-03T18:05:42.512Z,71.00
2023-03-03T18:08:45.153Z,68.70
2023-03-03T18:11:45.885Z,66.23
2023-03-03T18:14:49.854Z,65.53
2023-03-03T18:18:05.674Z,69.85
2023-03-03T18:21:08.041Z,69.00
2023-03-03T18:23:46.244Z,71.22
2023-03-03T18:26:41.801Z,69.67
2023-03-03T18:29:16.647Z,67.88
2023-03-03T18:31:52.871Z,64.13
2023-03-03T18:34:39.042Z,72.03
2023-03-03T18:37:35.272Z,68.95
2023-03-03T18:40:07.093Z,66.27
2023-03-03T18:42:42.752Z,63.38
2023-03-03T18:45:21.361Z,68.35
2023-03-03T18:48:11.372Z,67.30
2023-03-03T18:50:55.607Z,67.68
2023-03-03T18:53:35.781Z,69.80
2023-03-03T18:56:53.769Z,70.05
2023-03-03T18:59:34.881Z,75.35
2023-03-03T19:02:12.903Z,68.35
2023-03-03T19:05:08.095Z,73.32
2023-03-03T19:07:40.319Z,77.33
2023-03-03T19:10:21.540Z,74.15
2023-03-03T19:12:59.200Z,71.00
2023-03-03T19:15:31.202Z,70.75
2023-03-03T19:18:18.662Z,78.78
2023-03-03T19:21:12.902Z,72.87
2023-03-03T19:24:05.061Z,75.13
2023-03-03T19:26:58.316Z,69.38
2023-03-03T19:29:46.688Z,74.60
2023-03-03T19:33:00.580Z,78.07
2023-03-03T19:35:48.906Z,71.80
2023-03-03T19:39:09.546Z,73.22
2023-03-03T19:42:06.542Z,124.00
2023-03-03T19:45:12.079Z,93.30
2023-03-03T19:48:13.072Z,78.22
2023-03-03T19:54:44.036Z,66.85
2023-03-03T19:57:34.582Z,77.80
2023-03-03T20:00:26.015Z,72.18
2023-03-03T20:06:56.979Z,75.47
2023-03-03T20:10:01.177Z,76.57
2023-03-03T20:13:12.268Z,80.53
2023-03-03T20:15:49.864Z,83.18
2023-03-03T20:18:40.860Z,79.75
2023-03-03T20:21:38.448Z,83.53
2023-03-03T20:24:22.042Z,78.45
2023-03-03T20:27:08.060Z,77.20
2023-03-03T20:30:36.307Z,76.05
2023-03-03T20:33:48.606Z,72.22
2023-03-03T20:36:59.324Z,80.27
2023-03-03T20:40:11.269Z,83.30
2023-03-03T20:42:59.110Z,80.70
2023-03-03T20:45:53.850Z,84.35
2023-03-03T20:48:50.650Z,76.63
2023-03-03T20:51:58.422Z,79.40
2023-03-03T20:54:49.529Z,84.22
2023-03-03T20:57:47.524Z,78.97
2023-03-03T21:00:27.217Z,78.03
2023-03-03T21:03:26.087Z,79.32
2023-03-03T21:06:09.301Z,80.60
2023-03-03T21:08:55.138Z,86.20
2023-03-03T21:11:30.306Z,80.35
2023-03-03T21:14:30.564Z,149.13
2023-03-03T21:17:30.119Z,87.03
2023-03-03T21:20:26.625Z,83.07
2023-03-03T21:23:02.516Z,79.15
2023-03-03T21:28:34.968Z,86.90
2023-03-03T21:31:17.275Z,85.07
2023-03-03T21:33:56.345Z,80.87
2023-03-03T21:36:37.443Z,95.43
2023-03-03T21:39:29.047Z,83.85
2023-03-03T21:42:02.337Z,84.85
2023-03-03T21:44:53.187Z,81.35
2023-03-03T21:47:29.100Z,80.27
2023-03-03T21:50:02.446Z,86.57
2023-03-03T21:52:35.104Z,74.45
2023-03-03T21:55:09.387Z,82.55
2023-03-03T21:57:41.737Z,82.85
2023-03-03T22:00:14.872Z,87.20
2023-03-03T22:02:47.233Z,78.78
2023-03-03T22:05:19.902Z,88.10
2023-03-03T22:07:52.688Z,78.55
2023-03-03T22:10:24.556Z,79.43
2023-03-03T22:12:58.035Z,80.60
2023-03-03T22:15:33.164Z,83.15
2023-03-03T22:18:05.989Z,83.22
2023-03-03T22:20:38.338Z,82.85
2023-03-03T22:23:10.661Z,77.10
2023-03-03T22:25:42.646Z,82.90
2023-03-03T22:28:15.452Z,77.38
2023-03-03T22:30:47.410Z,80.20
2023-03-03T22:33:23.321Z,89.20
2023-03-03T22:35:55.651Z,83.53
2023-03-03T22:38:28.508Z,81.17
2023-03-03T22:41:02.035Z,83.93
2023-03-03T22:43:34.335Z,82.03
2023-03-03T22:46:07.113Z,78.63
2023-03-03T22:48:57.994Z,80.35
2023-03-03T22:51:30.514Z,86.40
2023-03-03T22:54:02.823Z,83.13
2023-03-03T22:56:35.267Z,81.03
2023-03-03T22:59:07.197Z,84.38
2023-03-03T23:01:39.889Z,82.38
2023-03-03T23:04:11.827Z,80.97
2023-03-03T23:06:48.643Z,85.72
2023-03-03T23:09:20.966Z,84.53
2023-03-03T23:11:54.025Z,79.32
2023-03-03T23:14:25.987Z,84.25
2023-03-03T23:16:58.697Z,74.53
2023-03-03T23:19:30.999Z,79.72
2023-03-03T23:22:03.527Z,84.20
2023-03-03T23:24:35.559Z,89.97
2023-03-03T23:30:05.066Z,77.57
2023-03-03T23:32:37.361Z,79.38
2023-03-03T23:35:09.956Z,80.10
2023-03-03T23:37:42.774Z,80.85
2023-03-03T23:40:17.023Z,79.57
2023-03-03T23:42:50.086Z,70.67
2023-03-03T23:45:22.404Z,76.53
2023-03-03T23:47:57.837Z,73.95
2023-03-03T23:50:29.816Z,81.90
2023-03-03T23:53:03.774Z,77.22
2023-03-03T23:55:36.674Z,80.03
2023-03-03T23:58:08.976Z,87.00
